sensor_id;sensor_type;location;lat;lon;timestamp;P1;durP1;ratioP1;P2;durP2;ratioP2
62933;SDS011;49038;47.600;19.242;2022-08-19T00:02:17;6.72;;;4.22;;
62933;SDS011;49038;47.600;19.242;2022-08-19T00:05:19;5.80;;;3.90;;
62933;SDS011;49038;47.600;19.242;2022-08-19T00:08:22;7.05;;;4.20;;
62933;SDS011;49038;47.600;19.242;2022-08-19T00:11:24;5.20;;;4.20;;
62933;SDS011;49038;47.600;19.242;2022-08-19T00:14:29;5.07;;;4.15;;
62933;SDS011;49038;47.600;19.242;2022-08-19T00:17:34;5.40;;;3.72;;
62933;SDS011;49038;47.600;19.242;2022-08-19T00:20:42;10.55;;;4.10;;
62933;SDS011;49038;47.600;19.242;2022-08-19T00:23:44;10.80;;;4.10;;
62933;SDS011;49038;47.600;19.242;2022-08-19T00:26:48;8.40;;;3.95;;
62933;SDS011;49038;47.600;19.242;2022-08-19T00:29:50;6.85;;;3.90;;
62933;SDS011;49038;47.600;19.242;2022-08-19T00:32:53;6.93;;;4.28;;
62933;SDS011;49038;47.600;19.242;2022-08-19T00:35:56;8.23;;;4.45;;
62933;SDS011;49038;47.600;19.242;2022-08-19T00:38:59;6.90;;;4.43;;
62933;SDS011;49038;47.600;19.242;2022-08-19T00:42:02;5.32;;;3.83;;
62933;SDS011;49038;47.600;19.242;2022-08-19T00:45:09;16.90;;;5.07;;
62933;SDS011;49038;47.600;19.242;2022-08-19T00:48:14;7.07;;;4.40;;
62933;SDS011;49038;47.600;19.242;2022-08-19T00:51:18;5.03;;;4.03;;
62933;SDS011;49038;47.600;19.242;2022-08-19T00:54:20;5.28;;;4.40;;
62933;SDS011;49038;47.600;19.242;2022-08-19T00:57:32;7.47;;;3.75;;
62933;SDS011;49038;47.600;19.242;2022-08-19T01:00:37;7.18;;;4.47;;
62933;SDS011;49038;47.600;19.242;2022-08-19T01:03:40;12.30;;;4.18;;
62933;SDS011;49038;47.600;19.242;2022-08-19T01:06:59;5.15;;;4.05;;
62933;SDS011;49038;47.600;19.242;2022-08-19T01:10:02;5.60;;;4.40;;
62933;SDS011;49038;47.600;19.242;2022-08-19T01:13:06;7.95;;;4.55;;
62933;SDS011;49038;47.600;19.242;2022-08-19T01:16:09;9.50;;;4.10;;
62933;SDS011;49038;47.600;19.242;2022-08-19T01:19:21;8.80;;;5.32;;
62933;SDS011;49038;47.600;19.242;2022-08-19T01:25:42;6.18;;;4.37;;
62933;SDS011;49038;47.600;19.242;2022-08-19T01:28:48;7.47;;;4.32;;
62933;SDS011;49038;47.600;19.242;2022-08-19T01:31:52;5.82;;;4.28;;
62933;SDS011;49038;47.600;19.242;2022-08-19T01:34:55;13.55;;;4.55;;
62933;SDS011;49038;47.600;19.242;2022-08-19T01:37:59;5.35;;;3.95;;
62933;SDS011;49038;47.600;19.242;2022-08-19T01:41:04;14.23;;;4.60;;
62933;SDS011;49038;47.600;19.242;2022-08-19T01:44:11;5.35;;;3.85;;
62933;SDS011;49038;47.600;19.242;2022-08-19T01:47:20;7.32;;;3.90;;
62933;SDS011;49038;47.600;19.242;2022-08-19T01:50:22;6.53;;;4.50;;
62933;SDS011;49038;47.600;19.242;2022-08-19T01:53:24;6.65;;;4.35;;
62933;SDS011;49038;47.600;19.242;2022-08-19T01:56:34;7.30;;;4.35;;
62933;SDS011;49038;47.600;19.242;2022-08-19T01:59:37;6.18;;;4.62;;
62933;SDS011;49038;47.600;19.242;2022-08-19T02:02:41;7.85;;;4.50;;
62933;SDS011;49038;47.600;19.242;2022-08-19T02:05:45;5.60;;;4.35;;
62933;SDS011;49038;47.600;19.242;2022-08-19T02:08:47;7.28;;;4.28;;
62933;SDS011;49038;47.600;19.242;2022-08-19T02:11:52;5.87;;;4.18;;
62933;SDS011;49038;47.600;19.242;2022-08-19T02:14:55;5.37;;;4.55;;
62933;SDS011;49038;47.600;19.242;2022-08-19T02:17:57;12.80;;;4.93;;
62933;SDS011;49038;47.600;19.242;2022-08-19T02:21:00;7.55;;;4.57;;
62933;SDS011;49038;47.600;19.242;2022-08-19T02:24:03;6.22;;;4.82;;
62933;SDS011;49038;47.600;19.242;2022-08-19T02:27:06;8.10;;;4.37;;
62933;SDS011;49038;47.600;19.242;2022-08-19T02:30:14;6.93;;;4.53;;
62933;SDS011;49038;47.600;19.242;2022-08-19T02:33:17;6.97;;;4.40;;
62933;SDS011;49038;47.600;19.242;2022-08-19T02:36:20;11.63;;;4.37;;
62933;SDS011;49038;47.600;19.242;2022-08-19T02:39:22;6.50;;;4.57;;
62933;SDS011;49038;47.600;19.242;2022-08-19T02:42:24;6.12;;;4.35;;
62933;SDS011;49038;47.600;19.242;2022-08-19T02:45:31;6.57;;;4.85;;
62933;SDS011;49038;47.600;19.242;2022-08-19T02:48:34;6.37;;;4.40;;
62933;SDS011;49038;47.600;19.242;2022-08-19T02:51:38;8.15;;;4.18;;
62933;SDS011;49038;47.600;19.242;2022-08-19T02:54:42;5.85;;;4.40;;
62933;SDS011;49038;47.600;19.242;2022-08-19T02:57:45;5.70;;;4.60;;
62933;SDS011;49038;47.600;19.242;2022-08-19T03:00:49;7.90;;;4.70;;
62933;SDS011;49038;47.600;19.242;2022-08-19T03:03:54;6.87;;;4.60;;
62933;SDS011;49038;47.600;19.242;2022-08-19T03:06:57;6.68;;;4.65;;
62933;SDS011;49038;47.600;19.242;2022-08-19T03:10:12;5.25;;;4.45;;
62933;SDS011;49038;47.600;19.242;2022-08-19T03:13:15;6.28;;;4.53;;
62933;SDS011;49038;47.600;19.242;2022-08-19T03:16:23;6.10;;;4.80;;
62933;SDS011;49038;47.600;19.242;2022-08-19T03:19:26;7.18;;;4.30;;
62933;SDS011;49038;47.600;19.242;2022-08-19T03:22:29;5.15;;;4.57;;
62933;SDS011;49038;47.600;19.242;2022-08-19T03:25:35;6.28;;;3.80;;
62933;SDS011;49038;47.600;19.242;2022-08-19T03:28:39;8.70;;;4.55;;
62933;SDS011;49038;47.600;19.242;2022-08-19T03:31:59;9.23;;;4.65;;
62933;SDS011;49038;47.600;19.242;2022-08-19T03:35:05;5.82;;;4.35;;
62933;SDS011;49038;47.600;19.242;2022-08-19T03:38:08;10.70;;;4.25;;
62933;SDS011;49038;47.600;19.242;2022-08-19T03:41:11;5.65;;;4.12;;
62933;SDS011;49038;47.600;19.242;2022-08-19T03:44:17;7.47;;;4.20;;
62933;SDS011;49038;47.600;19.242;2022-08-19T03:47:23;8.63;;;4.87;;
62933;SDS011;49038;47.600;19.242;2022-08-19T03:50:25;6.57;;;4.40;;
62933;SDS011;49038;47.600;19.242;2022-08-19T03:53:28;5.80;;;4.60;;
62933;SDS011;49038;47.600;19.242;2022-08-19T03:56:33;6.85;;;4.32;;
62933;SDS011;49038;47.600;19.242;2022-08-19T03:59:37;6.12;;;4.12;;
62933;SDS011;49038;47.600;19.242;2022-08-19T04:02:41;7.60;;;4.05;;
62933;SDS011;49038;47.600;19.242;2022-08-19T04:05:59;8.95;;;4.00;;
62933;SDS011;49038;47.600;19.242;2022-08-19T04:12:32;13.20;;;4.55;;
62933;SDS011;49038;47.600;19.242;2022-08-19T04:15:38;7.43;;;4.20;;
62933;SDS011;49038;47.600;19.242;2022-08-19T04:18:43;6.07;;;4.07;;
62933;SDS011;49038;47.600;19.242;2022-08-19T04:21:47;6.05;;;3.80;;
62933;SDS011;49038;47.600;19.242;2022-08-19T04:24:50;7.85;;;4.22;;
62933;SDS011;49038;47.600;19.242;2022-08-19T04:27:53;5.25;;;3.67;;
62933;SDS011;49038;47.600;19.242;2022-08-19T04:30:55;6.40;;;4.10;;
62933;SDS011;49038;47.600;19.242;2022-08-19T04:33:59;5.25;;;3.90;;
62933;SDS011;49038;47.600;19.242;2022-08-19T04:37:04;6.25;;;4.03;;
62933;SDS011;49038;47.600;19.242;2022-08-19T04:40:12;5.68;;;3.90;;
62933;SDS011;49038;47.600;19.242;2022-08-19T04:43:33;8.88;;;3.60;;
62933;SDS011;49038;47.600;19.242;2022-08-19T04:46:36;5.43;;;4.10;;
62933;SDS011;49038;47.600;19.242;2022-08-19T04:49:51;6.53;;;3.70;;
62933;SDS011;49038;47.600;19.242;2022-08-19T04:52:53;5.40;;;3.78;;
62933;SDS011;49038;47.600;19.242;2022-08-19T04:55:59;8.90;;;3.72;;
62933;SDS011;49038;47.600;19.242;2022-08-19T04:59:02;5.55;;;3.37;;
62933;SDS011;49038;47.600;19.242;2022-08-19T05:02:07;7.50;;;4.40;;
62933;SDS011;49038;47.600;19.242;2022-08-19T05:05:10;9.32;;;4.03;;
62933;SDS011;49038;47.600;19.242;2022-08-19T05:08:12;6.28;;;3.67;;
62933;SDS011;49038;47.600;19.242;2022-08-19T05:11:21;4.95;;;3.22;;
62933;SDS011;49038;47.600;19.242;2022-08-19T05:14:27;4.40;;;3.47;;
62933;SDS011;49038;47.600;19.242;2022-08-19T05:17:31;4.07;;;3.65;;
62933;SDS011;49038;47.600;19.242;2022-08-19T05:20:39;5.68;;;3.45;;
62933;SDS011;49038;47.600;19.242;2022-08-19T05:24:00;4.80;;;3.20;;
62933;SDS011;49038;47.600;19.242;2022-08-19T05:27:04;4.85;;;3.05;;
62933;SDS011;49038;47.600;19.242;2022-08-19T05:30:08;5.05;;;3.58;;
62933;SDS011;49038;47.600;19.242;2022-08-19T05:33:11;5.90;;;3.62;;
62933;SDS011;49038;47.600;19.242;2022-08-19T05:36:14;4.75;;;2.87;;
62933;SDS011;49038;47.600;19.242;2022-08-19T05:39:18;5.32;;;3.33;;
62933;SDS011;49038;47.600;19.242;2022-08-19T05:42:23;4.75;;;3.00;;
62933;SDS011;49038;47.600;19.242;2022-08-19T05:45:25;4.20;;;2.83;;
62933;SDS011;49038;47.600;19.242;2022-08-19T05:48:27;4.70;;;3.35;;
62933;SDS011;49038;47.600;19.242;2022-08-19T05:51:30;4.32;;;3.03;;
62933;SDS011;49038;47.600;19.242;2022-08-19T05:54:33;4.07;;;2.75;;
62933;SDS011;49038;47.600;19.242;2022-08-19T05:57:37;6.12;;;3.00;;
62933;SDS011;49038;47.600;19.242;2022-08-19T06:00:40;3.90;;;3.10;;
62933;SDS011;49038;47.600;19.242;2022-08-19T06:03:45;8.82;;;3.05;;
62933;SDS011;49038;47.600;19.242;2022-08-19T06:06:48;3.60;;;2.92;;
62933;SDS011;49038;47.600;19.242;2022-08-19T06:09:53;4.57;;;3.17;;
62933;SDS011;49038;47.600;19.242;2022-08-19T06:13:01;6.25;;;2.85;;
62933;SDS011;49038;47.600;19.242;2022-08-19T06:16:04;4.25;;;3.17;;
62933;SDS011;49038;47.600;19.242;2022-08-19T06:19:08;3.83;;;2.62;;
62933;SDS011;49038;47.600;19.242;2022-08-19T06:22:11;9.70;;;3.17;;
62933;SDS011;49038;47.600;19.242;2022-08-19T06:25:15;5.05;;;3.10;;
62933;SDS011;49038;47.600;19.242;2022-08-19T06:28:17;5.57;;;3.08;;
62933;SDS011;49038;47.600;19.242;2022-08-19T06:31:21;6.05;;;3.25;;
62933;SDS011;49038;47.600;19.242;2022-08-19T06:34:26;4.07;;;2.90;;
62933;SDS011;49038;47.600;19.242;2022-08-19T06:37:29;5.15;;;3.45;;
62933;SDS011;49038;47.600;19.242;2022-08-19T06:40:32;5.82;;;3.10;;
62933;SDS011;49038;47.600;19.242;2022-08-19T06:43:34;5.18;;;2.83;;
62933;SDS011;49038;47.600;19.242;2022-08-19T06:46:43;3.60;;;2.97;;
62933;SDS011;49038;47.600;19.242;2022-08-19T06:49:57;3.62;;;2.80;;
62933;SDS011;49038;47.600;19.242;2022-08-19T06:53:06;6.70;;;2.50;;
62933;SDS011;49038;47.600;19.242;2022-08-19T06:56:09;3.65;;;2.47;;
62933;SDS011;49038;47.600;19.242;2022-08-19T06:59:16;5.28;;;2.58;;
62933;SDS011;49038;47.600;19.242;2022-08-19T07:02:20;4.78;;;2.65;;
62933;SDS011;49038;47.600;19.242;2022-08-19T07:05:22;8.85;;;2.47;;
62933;SDS011;49038;47.600;19.242;2022-08-19T07:08:25;4.12;;;2.50;;
62933;SDS011;49038;47.600;19.242;2022-08-19T07:11:30;5.25;;;3.00;;
62933;SDS011;49038;47.600;19.242;2022-08-19T07:14:35;3.50;;;2.58;;
62933;SDS011;49038;47.600;19.242;2022-08-19T07:17:39;4.75;;;2.65;;
62933;SDS011;49038;47.600;19.242;2022-08-19T07:20:43;5.57;;;2.50;;
62933;SDS011;49038;47.600;19.242;2022-08-19T07:23:45;5.10;;;2.53;;
62933;SDS011;49038;47.600;19.242;2022-08-19T07:26:48;5.12;;;2.70;;
62933;SDS011;49038;47.600;19.242;2022-08-19T07:29:52;2.78;;;2.28;;
62933;SDS011;49038;47.600;19.242;2022-08-19T07:32:58;7.28;;;2.55;;
62933;SDS011;49038;47.600;19.242;2022-08-19T07:36:05;3.83;;;2.62;;
62933;SDS011;49038;47.600;19.242;2022-08-19T07:39:11;6.87;;;2.92;;
62933;SDS011;49038;47.600;19.242;2022-08-19T07:45:22;3.15;;;2.08;;
62933;SDS011;49038;47.600;19.242;2022-08-19T07:48:26;3.20;;;2.67;;
62933;SDS011;49038;47.600;19.242;2022-08-19T07:51:29;3.92;;;2.67;;
62933;SDS011;49038;47.600;19.242;2022-08-19T07:54:38;3.95;;;2.45;;
62933;SDS011;49038;47.600;19.242;2022-08-19T07:57:40;3.78;;;2.58;;
62933;SDS011;49038;47.600;19.242;2022-08-19T08:00:43;5.03;;;3.22;;
62933;SDS011;49038;47.600;19.242;2022-08-19T08:03:46;4.93;;;2.70;;
62933;SDS011;49038;47.600;19.242;2022-08-19T08:07:15;3.30;;;2.47;;
62933;SDS011;49038;47.600;19.242;2022-08-19T08:10:36;3.95;;;2.62;;
62933;SDS011;49038;47.600;19.242;2022-08-19T08:13:39;6.05;;;2.90;;
62933;SDS011;49038;47.600;19.242;2022-08-19T08:16:43;3.85;;;2.45;;
62933;SDS011;49038;47.600;19.242;2022-08-19T08:19:48;7.40;;;2.65;;
62933;SDS011;49038;47.600;19.242;2022-08-19T08:22:52;3.80;;;2.22;;
62933;SDS011;49038;47.600;19.242;2022-08-19T08:26:13;4.62;;;3.10;;
62933;SDS011;49038;47.600;19.242;2022-08-19T08:29:17;4.72;;;2.58;;
62933;SDS011;49038;47.600;19.242;2022-08-19T08:32:22;4.20;;;2.20;;
62933;SDS011;49038;47.600;19.242;2022-08-19T08:35:25;2.70;;;2.30;;
62933;SDS011;49038;47.600;19.242;2022-08-19T08:38:28;3.97;;;2.65;;
62933;SDS011;49038;47.600;19.242;2022-08-19T08:41:54;3.07;;;1.97;;
62933;SDS011;49038;47.600;19.242;2022-08-19T08:45:05;3.47;;;2.22;;
62933;SDS011;49038;47.600;19.242;2022-08-19T08:48:20;6.00;;;2.45;;
62933;SDS011;49038;47.600;19.242;2022-08-19T08:51:50;4.35;;;2.00;;
62933;SDS011;49038;47.600;19.242;2022-08-19T08:55:05;3.10;;;2.08;;
62933;SDS011;49038;47.600;19.242;2022-08-19T08:58:24;3.37;;;2.12;;
62933;SDS011;49038;47.600;19.242;2022-08-19T09:01:55;2.75;;;1.98;;
62933;SDS011;49038;47.600;19.242;2022-08-19T09:04:57;3.83;;;2.37;;
62933;SDS011;49038;47.600;19.242;2022-08-19T09:11:19;5.15;;;2.33;;
62933;SDS011;49038;47.600;19.242;2022-08-19T09:14:51;6.20;;;2.40;;
62933;SDS011;49038;47.600;19.242;2022-08-19T09:17:59;3.60;;;2.10;;
62933;SDS011;49038;47.600;19.242;2022-08-19T09:21:03;4.15;;;2.20;;
62933;SDS011;49038;47.600;19.242;2022-08-19T09:24:06;4.28;;;2.05;;
62933;SDS011;49038;47.600;19.242;2022-08-19T09:27:08;2.72;;;2.05;;
62933;SDS011;49038;47.600;19.242;2022-08-19T09:30:27;3.15;;;2.08;;
62933;SDS011;49038;47.600;19.242;2022-08-19T09:33:32;4.53;;;2.10;;
62933;SDS011;49038;47.600;19.242;2022-08-19T09:36:34;4.68;;;2.20;;
62933;SDS011;49038;47.600;19.242;2022-08-19T09:39:40;3.17;;;2.10;;
62933;SDS011;49038;47.600;19.242;2022-08-19T09:42:44;3.45;;;1.98;;
62933;SDS011;49038;47.600;19.242;2022-08-19T09:45:51;2.25;;;1.95;;
62933;SDS011;49038;47.600;19.242;2022-08-19T09:48:54;5.95;;;2.37;;
62933;SDS011;49038;47.600;19.242;2022-08-19T09:52:03;3.00;;;2.33;;
62933;SDS011;49038;47.600;19.242;2022-08-19T09:55:06;3.65;;;2.28;;
62933;SDS011;49038;47.600;19.242;2022-08-19T09:58:10;3.08;;;2.00;;
62933;SDS011;49038;47.600;19.242;2022-08-19T10:01:25;4.10;;;2.10;;
62933;SDS011;49038;47.600;19.242;2022-08-19T10:04:29;4.20;;;2.20;;
62933;SDS011;49038;47.600;19.242;2022-08-19T10:07:51;6.12;;;2.40;;
62933;SDS011;49038;47.600;19.242;2022-08-19T10:10:53;4.12;;;2.35;;
62933;SDS011;49038;47.600;19.242;2022-08-19T10:13:56;4.37;;;2.20;;
62933;SDS011;49038;47.600;19.242;2022-08-19T10:16:59;6.12;;;2.78;;
62933;SDS011;49038;47.600;19.242;2022-08-19T10:20:18;5.87;;;2.20;;
62933;SDS011;49038;47.600;19.242;2022-08-19T10:23:20;3.92;;;2.28;;
62933;SDS011;49038;47.600;19.242;2022-08-19T10:26:27;4.03;;;2.37;;
62933;SDS011;49038;47.600;19.242;2022-08-19T10:29:31;3.12;;;2.30;;
62933;SDS011;49038;47.600;19.242;2022-08-19T10:32:36;2.83;;;2.20;;
62933;SDS011;49038;47.600;19.242;2022-08-19T10:35:47;4.15;;;2.30;;
62933;SDS011;49038;47.600;19.242;2022-08-19T10:38:58;2.62;;;2.37;;
62933;SDS011;49038;47.600;19.242;2022-08-19T10:42:06;2.90;;;2.40;;
62933;SDS011;49038;47.600;19.242;2022-08-19T10:45:09;2.83;;;2.40;;
62933;SDS011;49038;47.600;19.242;2022-08-19T10:48:12;2.78;;;2.30;;
62933;SDS011;49038;47.600;19.242;2022-08-19T10:51:20;5.05;;;2.20;;
62933;SDS011;49038;47.600;19.242;2022-08-19T10:54:49;5.13;;;2.00;;
62933;SDS011;49038;47.600;19.242;2022-08-19T10:58:14;5.68;;;2.50;;
62933;SDS011;49038;47.600;19.242;2022-08-19T11:01:19;2.80;;;2.37;;
62933;SDS011;49038;47.600;19.242;2022-08-19T11:04:22;4.55;;;2.35;;
62933;SDS011;49038;47.600;19.242;2022-08-19T11:07:30;2.37;;;2.00;;
62933;SDS011;49038;47.600;19.242;2022-08-19T11:10:32;3.47;;;2.35;;
62933;SDS011;49038;47.600;19.242;2022-08-19T11:13:37;8.80;;;3.28;;
62933;SDS011;49038;47.600;19.242;2022-08-19T11:16:41;5.03;;;2.10;;
62933;SDS011;49038;47.600;19.242;2022-08-19T11:19:44;3.12;;;2.17;;
62933;SDS011;49038;47.600;19.242;2022-08-19T11:22:46;3.60;;;1.95;;
62933;SDS011;49038;47.600;19.242;2022-08-19T11:25:49;3.20;;;1.90;;
62933;SDS011;49038;47.600;19.242;2022-08-19T11:28:52;5.47;;;2.80;;
62933;SDS011;49038;47.600;19.242;2022-08-19T11:31:56;2.75;;;1.70;;
62933;SDS011;49038;47.600;19.242;2022-08-19T11:34:58;2.90;;;2.35;;
62933;SDS011;49038;47.600;19.242;2022-08-19T11:38:01;4.35;;;1.83;;
62933;SDS011;49038;47.600;19.242;2022-08-19T11:41:09;3.22;;;2.15;;
62933;SDS011;49038;47.600;19.242;2022-08-19T11:44:11;2.25;;;1.80;;
62933;SDS011;49038;47.600;19.242;2022-08-19T11:47:16;3.58;;;2.15;;
62933;SDS011;49038;47.600;19.242;2022-08-19T11:50:18;7.40;;;2.25;;
62933;SDS011;49038;47.600;19.242;2022-08-19T11:53:21;3.72;;;2.08;;
62933;SDS011;49038;47.600;19.242;2022-08-19T11:56:23;7.47;;;2.40;;
62933;SDS011;49038;47.600;19.242;2022-08-19T11:59:27;2.70;;;1.90;;
62933;SDS011;49038;47.600;19.242;2022-08-19T12:02:30;5.03;;;2.30;;
62933;SDS011;49038;47.600;19.242;2022-08-19T12:05:32;4.30;;;1.90;;
62933;SDS011;49038;47.600;19.242;2022-08-19T12:08:35;3.95;;;1.70;;
62933;SDS011;49038;47.600;19.242;2022-08-19T12:11:38;6.68;;;2.00;;
62933;SDS011;49038;47.600;19.242;2022-08-19T12:14:40;4.97;;;2.20;;
62933;SDS011;49038;47.600;19.242;2022-08-19T12:17:43;4.37;;;1.80;;
62933;SDS011;49038;47.600;19.242;2022-08-19T12:20:45;3.70;;;1.80;;
62933;SDS011;49038;47.600;19.242;2022-08-19T12:23:49;3.50;;;2.20;;
62933;SDS011;49038;47.600;19.242;2022-08-19T12:26:56;3.30;;;1.87;;
62933;SDS011;49038;47.600;19.242;2022-08-19T12:30:04;5.35;;;1.90;;
62933;SDS011;49038;47.600;19.242;2022-08-19T12:33:07;25.33;;;2.33;;
62933;SDS011;49038;47.600;19.242;2022-08-19T12:36:11;6.45;;;2.30;;
62933;SDS011;49038;47.600;19.242;2022-08-19T12:39:14;4.35;;;1.90;;
62933;SDS011;49038;47.600;19.242;2022-08-19T12:42:16;3.53;;;1.65;;
62933;SDS011;49038;47.600;19.242;2022-08-19T12:45:19;9.88;;;2.97;;
62933;SDS011;49038;47.600;19.242;2022-08-19T12:48:22;3.42;;;1.70;;
62933;SDS011;49038;47.600;19.242;2022-08-19T12:51:35;3.03;;;1.92;;
62933;SDS011;49038;47.600;19.242;2022-08-19T12:54:37;5.90;;;2.30;;
62933;SDS011;49038;47.600;19.242;2022-08-19T12:57:39;9.68;;;2.55;;
62933;SDS011;49038;47.600;19.242;2022-08-19T13:00:42;3.47;;;2.20;;
62933;SDS011;49038;47.600;19.242;2022-08-19T13:03:45;11.02;;;3.03;;
62933;SDS011;49038;47.600;19.242;2022-08-19T13:06:48;6.93;;;2.67;;
62933;SDS011;49038;47.600;19.242;2022-08-19T13:09:51;8.40;;;2.60;;
62933;SDS011;49038;47.600;19.242;2022-08-19T13:12:54;8.55;;;3.17;;
62933;SDS011;49038;47.600;19.242;2022-08-19T13:15:59;6.70;;;2.20;;
62933;SDS011;49038;47.600;19.242;2022-08-19T13:19:04;3.85;;;2.10;;
62933;SDS011;49038;47.600;19.242;2022-08-19T13:22:07;8.95;;;2.17;;
62933;SDS011;49038;47.600;19.242;2022-08-19T13:25:16;5.40;;;2.90;;
62933;SDS011;49038;47.600;19.242;2022-08-19T13:28:20;4.32;;;2.40;;
62933;SDS011;49038;47.600;19.242;2022-08-19T13:31:31;3.40;;;2.60;;
62933;SDS011;49038;47.600;19.242;2022-08-19T13:34:53;5.68;;;3.08;;
62933;SDS011;49038;47.600;19.242;2022-08-19T13:37:55;5.65;;;3.05;;
62933;SDS011;49038;47.600;19.242;2022-08-19T13:41:03;5.78;;;3.72;;
62933;SDS011;49038;47.600;19.242;2022-08-19T13:44:13;6.68;;;2.87;;
62933;SDS011;49038;47.600;19.242;2022-08-19T13:47:16;9.25;;;3.50;;
62933;SDS011;49038;47.600;19.242;2022-08-19T13:50:21;7.00;;;3.47;;
62933;SDS011;49038;47.600;19.242;2022-08-19T13:53:33;6.10;;;3.25;;
62933;SDS011;49038;47.600;19.242;2022-08-19T13:56:39;8.65;;;3.33;;
62933;SDS011;49038;47.600;19.242;2022-08-19T13:59:43;7.82;;;4.55;;
62933;SDS011;49038;47.600;19.242;2022-08-19T14:02:46;11.15;;;5.47;;
62933;SDS011;49038;47.600;19.242;2022-08-19T14:05:48;9.55;;;4.85;;
62933;SDS011;49038;47.600;19.242;2022-08-19T14:08:50;8.65;;;4.47;;
62933;SDS011;49038;47.600;19.242;2022-08-19T14:11:54;7.75;;;4.68;;
62933;SDS011;49038;47.600;19.242;2022-08-19T14:14:57;7.53;;;4.62;;
62933;SDS011;49038;47.600;19.242;2022-08-19T14:18:00;9.57;;;5.68;;
62933;SDS011;49038;47.600;19.242;2022-08-19T14:21:03;5.70;;;3.92;;
62933;SDS011;49038;47.600;19.242;2022-08-19T14:24:07;14.98;;;5.62;;
62933;SDS011;49038;47.600;19.242;2022-08-19T14:27:10;6.28;;;4.18;;
62933;SDS011;49038;47.600;19.242;2022-08-19T14:30:13;6.15;;;4.10;;
62933;SDS011;49038;47.600;19.242;2022-08-19T14:33:18;9.90;;;3.85;;
62933;SDS011;49038;47.600;19.242;2022-08-19T14:36:21;9.75;;;3.55;;
62933;SDS011;49038;47.600;19.242;2022-08-19T14:39:23;9.82;;;2.45;;
62933;SDS011;49038;47.600;19.242;2022-08-19T14:42:25;9.15;;;2.65;;
62933;SDS011;49038;47.600;19.242;2022-08-19T14:45:28;10.52;;;3.28;;
62933;SDS011;49038;47.600;19.242;2022-08-19T14:48:30;8.98;;;2.10;;
62933;SDS011;49038;47.600;19.242;2022-08-19T14:51:32;7.40;;;2.33;;
62933;SDS011;49038;47.600;19.242;2022-08-19T14:54:35;6.70;;;2.22;;
62933;SDS011;49038;47.600;19.242;2022-08-19T14:57:37;7.53;;;2.87;;
62933;SDS011;49038;47.600;19.242;2022-08-19T15:00:39;10.40;;;2.80;;
62933;SDS011;49038;47.600;19.242;2022-08-19T15:03:41;9.70;;;2.58;;
62933;SDS011;49038;47.600;19.242;2022-08-19T15:06:44;10.05;;;2.15;;
62933;SDS011;49038;47.600;19.242;2022-08-19T15:09:48;12.40;;;3.92;;
62933;SDS011;49038;47.600;19.242;2022-08-19T15:12:52;7.35;;;3.55;;
62933;SDS011;49038;47.600;19.242;2022-08-19T15:15:56;10.82;;;2.00;;
62933;SDS011;49038;47.600;19.242;2022-08-19T15:18:59;6.22;;;1.90;;
62933;SDS011;49038;47.600;19.242;2022-08-19T15:22:01;11.02;;;3.08;;
62933;SDS011;49038;47.600;19.242;2022-08-19T15:25:05;7.80;;;2.30;;
62933;SDS011;49038;47.600;19.242;2022-08-19T15:28:12;12.27;;;2.70;;
62933;SDS011;49038;47.600;19.242;2022-08-19T15:31:19;20.30;;;2.87;;
62933;SDS011;49038;47.600;19.242;2022-08-19T15:34:29;4.20;;;2.35;;
62933;SDS011;49038;47.600;19.242;2022-08-19T15:37:33;2.85;;;1.92;;
62933;SDS011;49038;47.600;19.242;2022-08-19T15:40:38;8.30;;;1.80;;
62933;SDS011;49038;47.600;19.242;2022-08-19T15:43:42;5.65;;;1.85;;
62933;SDS011;49038;47.600;19.242;2022-08-19T15:46:45;3.65;;;1.67;;
62933;SDS011;49038;47.600;19.242;2022-08-19T15:49:48;14.75;;;3.05;;
62933;SDS011;49038;47.600;19.242;2022-08-19T15:52:55;8.07;;;2.08;;
62933;SDS011;49038;47.600;19.242;2022-08-19T15:55:59;6.45;;;1.67;;
62933;SDS011;49038;47.600;19.242;2022-08-19T15:59:02;6.07;;;2.22;;
62933;SDS011;49038;47.600;19.242;2022-08-19T16:02:41;5.07;;;1.87;;
62933;SDS011;49038;47.600;19.242;2022-08-19T16:06:02;9.93;;;2.37;;
62933;SDS011;49038;47.600;19.242;2022-08-19T16:09:24;5.18;;;1.40;;
62933;SDS011;49038;47.600;19.242;2022-08-19T16:12:29;3.78;;;1.20;;
62933;SDS011;49038;47.600;19.242;2022-08-19T16:15:32;16.65;;;3.55;;
62933;SDS011;49038;47.600;19.242;2022-08-19T16:18:35;11.85;;;1.95;;
62933;SDS011;49038;47.600;19.242;2022-08-19T16:21:39;9.23;;;2.08;;
62933;SDS011;49038;47.600;19.242;2022-08-19T16:24:42;7.03;;;2.20;;
62933;SDS011;49038;47.600;19.242;2022-08-19T16:27:45;9.75;;;2.60;;
62933;SDS011;49038;47.600;19.242;2022-08-19T16:31:07;7.32;;;1.70;;
62933;SDS011;49038;47.600;19.242;2022-08-19T16:34:10;6.05;;;1.40;;
62933;SDS011;49038;47.600;19.242;2022-08-19T16:37:14;7.30;;;2.15;;
62933;SDS011;49038;47.600;19.242;2022-08-19T16:40:18;4.30;;;1.17;;
62933;SDS011;49038;47.600;19.242;2022-08-19T16:43:21;9.18;;;1.73;;
62933;SDS011;49038;47.600;19.242;2022-08-19T16:46:25;5.70;;;2.03;;
62933;SDS011;49038;47.600;19.242;2022-08-19T16:49:28;10.02;;;2.45;;
62933;SDS011;49038;47.600;19.242;2022-08-19T16:52:51;7.10;;;1.52;;
62933;SDS011;49038;47.600;19.242;2022-08-19T16:55:54;8.48;;;1.80;;
62933;SDS011;49038;47.600;19.242;2022-08-19T16:58:58;6.25;;;2.05;;
62933;SDS011;49038;47.600;19.242;2022-08-19T17:02:00;8.90;;;1.87;;
62933;SDS011;49038;47.600;19.242;2022-08-19T17:05:03;8.40;;;1.45;;
62933;SDS011;49038;47.600;19.242;2022-08-19T17:08:05;7.07;;;1.92;;
62933;SDS011;49038;47.600;19.242;2022-08-19T17:11:08;2.87;;;1.20;;
62933;SDS011;49038;47.600;19.242;2022-08-19T17:14:19;6.55;;;2.05;;
62933;SDS011;49038;47.600;19.242;2022-08-19T17:17:22;5.72;;;1.70;;
62933;SDS011;49038;47.600;19.242;2022-08-19T17:20:30;9.60;;;1.60;;
62933;SDS011;49038;47.600;19.242;2022-08-19T17:23:32;8.15;;;1.73;;
62933;SDS011;49038;47.600;19.242;2022-08-19T17:26:44;11.60;;;1.48;;
62933;SDS011;49038;47.600;19.242;2022-08-19T17:29:46;12.13;;;2.25;;
62933;SDS011;49038;47.600;19.242;2022-08-19T17:32:49;6.90;;;1.45;;
62933;SDS011;49038;47.600;19.242;2022-08-19T17:35:52;4.53;;;1.73;;
62933;SDS011;49038;47.600;19.242;2022-08-19T17:38:55;5.03;;;1.73;;
62933;SDS011;49038;47.600;19.242;2022-08-19T17:41:58;8.73;;;1.90;;
62933;SDS011;49038;47.600;19.242;2022-08-19T17:45:04;3.80;;;1.27;;
62933;SDS011;49038;47.600;19.242;2022-08-19T17:48:07;8.13;;;1.30;;
62933;SDS011;49038;47.600;19.242;2022-08-19T17:51:17;3.37;;;1.40;;
62933;SDS011;49038;47.600;19.242;2022-08-19T17:54:22;7.07;;;2.05;;
62933;SDS011;49038;47.600;19.242;2022-08-19T17:57:34;6.75;;;1.20;;
62933;SDS011;49038;47.600;19.242;2022-08-19T18:00:36;8.35;;;2.50;;
62933;SDS011;49038;47.600;19.242;2022-08-19T18:03:54;6.82;;;1.60;;
62933;SDS011;49038;47.600;19.242;2022-08-19T18:06:56;8.98;;;1.23;;
62933;SDS011;49038;47.600;19.242;2022-08-19T18:09:58;5.97;;;1.75;;
62933;SDS011;49038;47.600;19.242;2022-08-19T18:13:04;5.80;;;1.42;;
62933;SDS011;49038;47.600;19.242;2022-08-19T18:16:18;7.15;;;1.62;;
62933;SDS011;49038;47.600;19.242;2022-08-19T18:19:23;9.95;;;2.00;;
62933;SDS011;49038;47.600;19.242;2022-08-19T18:22:37;11.55;;;1.95;;
62933;SDS011;49038;47.600;19.242;2022-08-19T18:25:40;5.95;;;2.00;;
62933;SDS011;49038;47.600;19.242;2022-08-19T18:28:44;8.00;;;2.45;;
62933;SDS011;49038;47.600;19.242;2022-08-19T18:31:50;6.28;;;1.75;;
62933;SDS011;49038;47.600;19.242;2022-08-19T18:34:58;6.22;;;1.70;;